Bracebridge, Canada
Current Conditions -  °F | °C
As of 4:00 PM on Tuesday 21 Oct 2014 (Local Time) from CYQA Reporting Station
Overcast Overcast  
Wind Chill: 36°   Ceiling: 1200
Heat Index: 41°   Visibility: 9mi
Dew Point: 39°   Wind: 8mph
Humidity: 93%   Direction: 20°NNE
Pressure: 30.04"   Gusts: NA
Location:  45.05°N, 79.32°W
Report Text: CYQA 212000Z AUTO 02007KT 330V060 9SM OVC012 05/04 A3004 RMK SLP181
Loading
Personal Weather Stations






























Interactive Weather Map New forecast layout! Learn more

10-Day Weather Forecast

Advertisements
Track Severe Weather on mobile